Flight Track Log - Related Links

Times and Time Zones

All times are in EDT time to prevent confusion due to time zone crossing. See the UAL3835 flight status page for this flight to view local times or setup timezone preferences in your user account.

Time Position Orientation Groundspeed Altitude Reporting Facility
EDT Latitude Longitude Course Direction KTS MPH feet Rate Location/Type
Fri 06:58:52 AM 40.7500 -74.1000 270° West 235 270 2,700  Level New York TRACON
Fri 06:59:52 AM 40.8000 -74.1000 360° North 254 292 3,700 1,950 Climbing New York TRACON
Fri 07:00:00 AM 40.7296 -74.5091 303° West  Level FlightAware Approximate
Fri 07:00:52 AM 40.8000 -74.1833 270° West 247 284 6,600  Level New York TRACON
Fri 07:01:00 AM 40.7435 -74.6276 277° West  Level FlightAware Approximate
Fri 07:01:52 AM 40.8167 -74.2833 282° West 254 292 9,500  Level New York TRACON
Fri 07:02:00 AM 40.7537 -74.7475 276° West  Level FlightAware Approximate
Fri 07:02:46 AM 40.8000 -74.3500 252° West 255 293 11,800  Level New York TRACON
Fri 07:03:00 AM 40.7629 -74.8677 276° West  Level FlightAware Approximate
Fri 07:03:46 AM 40.7167 -74.3500 180° South 280 322 14,100  Level New York TRACON
Fri 07:04:00 AM 40.7833 -74.9836 270° West  Level FlightAware Approximate
Fri 07:04:46 AM 40.6667 -74.4000 217° Southwest 274 315 16,100  Level New York TRACON
Fri 07:06:41 AM 40.7906 -74.4219 352° North 280 322 17,000 307 Climbing New York Center
Fri 07:07:42 AM 40.8392 -74.4711 323° Northwest 248 285 17,000  Level New York Center
Fri 07:08:41 AM 40.8350 -74.5997 268° West 249 287 17,000 50 Level New York Center
Fri 07:09:41 AM 40.8292 -74.7092 266° West 311 358 17,100 807 Climbing New York Center
Fri 07:10:40 AM 40.8119 -74.8481 261° West 347 399 18,600 1,450 Climbing New York Center
Fri 07:11:41 AM 40.7897 -74.9508 254° West 347 399 20,000 1,328 Climbing New York Center
Fri 07:12:42 AM 40.7644 -75.0753 255° West 353 406 21,300 1,261 Climbing New York Center
Fri 07:13:40 AM 40.7367 -75.2022 254° West 358 412 22,500 1,250 Climbing New York Center
Fri 07:14:42 AM 40.7111 -75.3267 255° West 363 418 23,800 1,311 Climbing New York Center
Fri 07:15:39 AM 40.6814 -75.4533 253° West 363 418 25,100 1,271 Climbing New York Center
Fri 07:16:40 AM 40.6553 -75.5800 255° West 363 418 26,300 1,240 Climbing New York Center
Fri 07:17:40 AM 40.6294 -75.7039 255° West 353 406 27,600 836 Climbing New York Center
Fri 07:18:42 AM 40.5989 -75.8303 252° West 353 406 28,000 198 Climbing New York Center
Fri 07:19:41 AM 40.5478 -75.9578 242° Southwest 372 428 28,000  Level New York Center
Fri 07:20:42 AM 40.4981 -76.0878 243° Southwest 387 445 28,000  Level New York Center
Fri 07:21:40 AM 40.4481 -76.2231 244° Southwest 406 467 28,000  Level New York Center
Fri 07:22:40 AM 40.3983 -76.3525 243° Southwest 406 467 28,000  Level New York Center
Fri 07:23:41 AM 40.3589 -76.4828 248° West 398 458 28,000  Level New York Center
Fri 07:24:40 AM 40.3253 -76.6136 251° West 388 447 28,000  Level New York Center
Fri 07:25:40 AM 40.2894 -76.7439 250° West 383 441 28,000  Level New York Center
Fri 07:26:40 AM 40.2556 -76.8769 252° West 383 441 28,000  Level New York Center
Fri 07:27:40 AM 40.2194 -77.0097 250° West 383 441 28,000 -250 Level New York Center
Fri 07:28:40 AM 40.1853 -77.1425 251° West 388 447 27,500 -595 Descending New York Center
Fri 07:29:41 AM 40.1481 -77.2914 252° West 388 447 26,800 -893 Descending New York Center
Fri 07:30:41 AM 40.1433 -77.4131 267° West 388 447 25,700 -1,081 Descending New York Center
Fri 07:32:33 AM 40.1044 -77.6514 258° West 359 413 23,700 -1,012 Descending Cleveland Center
Fri 07:33:33 AM 40.0553 -77.7703 242° Southwest 364 419 22,800 -850 Descending Cleveland Center
Fri 07:34:33 AM 40.0039 -77.8836 239° Southwest 364 419 22,000 -400 Descending Cleveland Center
Fri 07:35:33 AM 39.9733 -78.0039 252° West 361 415 22,000  Level Cleveland Center
Fri 07:36:33 AM 39.9906 -78.1253 281° West 342 394 22,000  Level Cleveland Center
Fri 07:37:33 AM 40.0058 -78.2494 279° West 337 388 22,000  Level Cleveland Center
Fri 07:38:33 AM 40.0231 -78.3897 279° West 352 405 22,000  Level Cleveland Center
Fri 07:39:33 AM 40.0381 -78.5167 279° West 352 405 22,000  Level Cleveland Center
Fri 07:40:33 AM 40.0569 -78.6411 281° West 352 405 22,000  Level Cleveland Center
Fri 07:41:33 AM 40.0736 -78.7681 280° West 352 405 22,000  Level Cleveland Center
Fri 07:42:33 AM 40.0900 -78.8950 280° West 352 405 22,000 -750 Level Cleveland Center
Fri 07:43:33 AM 40.1064 -79.0197 280° West 352 405 20,500 -1,850 Descending Cleveland Center
Fri 07:44:33 AM 40.1228 -79.1414 280° West 352 405 18,300 -1,900 Descending Cleveland Center
Fri 07:45:33 AM 40.1367 -79.2578 279° West 346 398 16,700 -1,900 Descending Cleveland Center
Fri 07:46:33 AM 40.1544 -79.3742 281° West 340 391 14,500 -2,150 Descending Cleveland Center
Fri 07:47:33 AM 40.1683 -79.4856 279° West 324 373 12,400 -2,050 Descending Cleveland Center
Fri 07:48:33 AM 40.1817 -79.5939 279° West 318 366 10,400 -1,200 Descending Cleveland Center
Fri 07:49:33 AM 40.1972 -79.6997 281° West 313 360 10,000 -300 Descending Cleveland Center
Fri 07:50:33 AM 40.2642 -79.7558 327° Northwest 271 312 9,800 -1,200 Descending Cleveland Center
Fri 07:51:33 AM 40.3292 -79.7933 336° Northwest 252 290 7,600 -1,900 Descending Cleveland Center
Fri 07:52:33 AM 40.3900 -79.8333 333° Northwest 252 290 6,000 -1,600 Descending Cleveland Center
Fri 07:53:33 AM 40.4444 -79.8875 323° Northwest 252 290 4,400 -1,000 Descending Cleveland Center
Fri 07:54:33 AM 40.4658 -79.9717 288° West 236 272 4,000 -450 Descending Cleveland Center
Fri 07:55:33 AM 40.4828 -80.0564 285° West 236 272 3,500 -500 Descending Cleveland Center

Login

Don't have an account? Register now (free) for customized features, flight alerts, and more!